• Join FlightAware (Why Join?)
  • Login
  • US Flag 
02:44AM EDT


 

Airport Tracker/Info


-or-


 

Live Flight TrackerFlight Track Log ✈ ASQ5678 ✈ 01-May-2013 ✈ KCVG - KIAH

Flight Track Log - Related Links

Times and Time Zones

All times are in EDT time to prevent confusion due to time zone crossing. See the ASQ5678 flight status page for this flight to view local times or setup timezone preferences in your user account.

Time Position Orientation Groundspeed Altitude Reporting Facility
EDT Latitude Longitude Course Direction KTS MPH feet Rate Location/Type
06:40PM 39.0500 -84.6833 208° Southwest 160 184 1,500  Level Cincinnati TRACON
06:41PM 39.0000 -84.7333 218° Southwest 214 246 3,400 1,860 Climbing Cincinnati TRACON
06:42PM 38.9333 -84.7667 201° Southwest 257 296 5,300 1,980 Climbing Cincinnati TRACON
06:44PM 38.6499 -84.8557 208° Southwest  Level FlightAware Approximate
06:44PM 38.8592 -84.8044 202° Southwest 270 311 8,100  Level Indianapolis Center
06:45PM 38.5564 -84.9180 208° Southwest  Level FlightAware Approximate
06:45PM 38.7858 -84.8369 199° South 275 316 10,400  Level Indianapolis Center
06:46PM 38.4597 -84.9713 208° Southwest  Level FlightAware Approximate
06:46PM 38.6894 -84.8822 200° South 314 361 11,400  Level Indianapolis Center
06:47PM 38.5972 -84.9253 200° South 345 397 12,700 1,440 Climbing Indianapolis Center
06:48PM 38.5036 -84.9725 202° Southwest 360 414 14,400 1,560 Climbing Indianapolis Center
06:49PM 38.4353 -85.0667 227° Southwest 364 419 16,000 1,440 Climbing Indianapolis Center
06:50PM 38.3708 -85.1683 231° Southwest 367 422 17,400 1,260 Climbing Indianapolis Center
06:51PM 38.3064 -85.2692 231° Southwest 370 426 18,700 1,440 Climbing Indianapolis Center
06:52PM 38.2281 -85.3931 231° Southwest 374 430 20,400 1,320 Climbing Indianapolis Center
06:53PM 38.1614 -85.4983 231° Southwest 380 437 21,500 1,080 Climbing Indianapolis Center
06:54PM 38.0928 -85.6056 231° Southwest 387 445 22,700 1,140 Climbing Indianapolis Center
06:55PM 38.0242 -85.7158 232° Southwest 393 452 23,900 1,080 Climbing Indianapolis Center
06:56PM 37.9878 -85.8497 251° West 401 461 25,000 1,080 Climbing Indianapolis Center
06:57PM 37.9567 -85.9872 254° West 403 464 26,200 1,080 Climbing Indianapolis Center
06:58PM 37.9236 -86.1228 253° West 402 463 27,300 1,200 Climbing Indianapolis Center
06:59PM 37.8861 -86.2833 254° West 394 453 28,700 1,260 Climbing Indianapolis Center
07:00PM 37.8544 -86.4147 253° West 391 450 30,000 1,320 Climbing Indianapolis Center
07:01PM 37.8233 -86.5458 253° West 387 445 31,500 1,380 Climbing Indianapolis Center
07:02PM 37.7925 -86.6722 253° West 377 434 32,900 1,380 Climbing Indianapolis Center
07:03PM 37.7611 -86.7978 252° West 373 429 34,400 1,320 Climbing Indianapolis Center
07:04PM 37.7319 -86.9200 253° West 365 420 35,700 720 Climbing Indianapolis Center
07:06PM 37.7019 -87.0419 253° West 362 417 36,000 120 Climbing Indianapolis Center
07:07PM 37.6703 -87.1717 253° West 377 434 36,000  Level Indianapolis Center
07:08PM 37.6339 -87.3169 252° West 409 471 36,000  Level Indianapolis Center
07:08PM 37.6153 -87.3961 253° West 411 473 36,000  Level Memphis Center
07:09PM 37.5811 -87.5389 253° West 430 495 36,000  Level Memphis Center
07:10PM 37.5444 -87.6786 252° West 430 495 36,000  Level Memphis Center
07:11PM 37.5083 -87.8367 254° West 429 494 36,000  Level Memphis Center
07:12PM 37.4694 -87.9764 251° West 429 494 36,000  Level Memphis Center
07:13PM 37.3836 -88.0731 222° Southwest 415 478 36,000  Level Memphis Center
07:14PM 37.2936 -88.1617 218° Southwest 410 472 36,000  Level Memphis Center
07:15PM 37.2014 -88.2475 217° Southwest 418 481 36,000  Level Memphis Center
07:16PM 37.1092 -88.3358 217° Southwest 418 481 36,000  Level Memphis Center
07:17PM 37.0167 -88.4239 217° Southwest 423 487 36,000  Level Memphis Center
07:18PM 36.9222 -88.5144 217° Southwest 429 494 36,000  Level Memphis Center
07:19PM 36.8319 -88.6019 218° Southwest 429 494 36,000  Level Memphis Center
07:20PM 36.7414 -88.6869 217° Southwest 429 494 36,000  Level Memphis Center
07:21PM 36.6553 -88.7869 223° Southwest 429 494 36,000  Level Memphis Center
07:22PM 36.5708 -88.8842 223° Southwest 424 488 36,000  Level Memphis Center
07:23PM 36.4844 -88.9864 224° Southwest 424 488 36,000  Level Memphis Center
07:24PM 36.3981 -89.0858 223° Southwest 424 488 36,000  Level Memphis Center
07:25PM 36.3156 -89.1747 221° Southwest 429 494 36,000  Level Memphis Center
07:26PM 36.2269 -89.2817 224° Southwest 442 509 36,000  Level Memphis Center
07:27PM 36.1422 -89.3856 225° Southwest 442 509 36,000  Level Memphis Center
07:28PM 36.0575 -89.4867 224° Southwest 431 496 36,000  Level Memphis Center
07:29PM 35.9728 -89.5875 224° Southwest 431 496 36,000  Level Memphis Center
07:30PM 35.8897 -89.6806 222° Southwest 420 483 36,000  Level Memphis Center
07:31PM 35.8047 -89.7811 224° Southwest 420 483 36,000  Level Memphis Center
07:32PM 35.7178 -89.8789 222° Southwest 425 489 36,000  Level Memphis Center
07:33PM 35.6283 -89.9892 225° Southwest 418 481 36,000  Level Memphis Center
07:34PM 35.5431 -90.0892 224° Southwest 418 481 36,000  Level Memphis Center
07:35PM 35.4578 -90.1889 224° Southwest 424 488 36,000  Level Memphis Center
07:36PM 35.3703 -90.2858 222° Southwest 424 488 36,000  Level Memphis Center
07:37PM 35.2847 -90.3850 223° Southwest 419 482 36,000  Level Memphis Center
07:38PM 35.1992 -90.4817 223° Southwest 419 482 36,000  Level Memphis Center
07:39PM 35.1114 -90.5806 223° Southwest 424 488 36,000  Level Memphis Center
07:40PM 35.0342 -90.6664 222° Southwest 424 488 36,000  Level Memphis Center
07:41PM 34.9483 -90.7625 223° Southwest 424 488 36,000  Level Memphis Center
07:42PM 34.8625 -90.8608 223° Southwest 419 482 36,000  Level Memphis Center
07:43PM 34.7764 -90.9514 221° Southwest 419 482 36,000  Level Memphis Center
07:44PM 34.7111 -91.0619 234° Southwest 413 475 36,000  Level Memphis Center
07:45PM 34.6936 -91.2008 261° West 403 464 36,000  Level Memphis Center
07:46PM 34.6842 -91.3472 266° West 427 491 36,000  Level Memphis Center
07:47PM 34.6619 -91.5033 260° West 436 502 36,000  Level Memphis Center
07:48PM 34.5797 -91.6108 227° Southwest 429 494 36,000  Level Memphis Center
07:49PM 34.4767 -91.6772 208° Southwest 413 475 36,000  Level Memphis Center
07:50PM 34.3822 -91.7286 204° Southwest 423 487 36,000  Level Memphis Center
07:52PM 34.2144 -91.8408 209° Southwest 428 493 36,000  Level Fort Worth Center
07:53PM 34.1086 -91.9003 205° Southwest 423 487 36,000  Level Fort Worth Center
07:54PM 34.0050 -91.9644 207° Southwest 423 487 36,000  Level Fort Worth Center
07:55PM 33.8992 -92.0286 207° Southwest 423 487 36,000  Level Fort Worth Center
07:56PM 33.7994 -92.0872 206° Southwest 418 481 36,000  Level Fort Worth Center
07:57PM 33.6958 -92.1536 208° Southwest 418 481 36,000  Level Fort Worth Center
07:58PM 33.5828 -92.1928 196° South 418 481 36,000  Level Fort Worth Center
07:59PM 33.4714 -92.2267 194° South 418 481 36,000  Level Fort Worth Center
08:00PM 33.3581 -92.2606 194° South 418 481 36,000  Level Fort Worth Center
08:01PM 33.2489 -92.2944 195° South 413 475 36,000  Level Fort Worth Center
08:02PM 33.1356 -92.3283 194° South 413 475 36,000  Level Fort Worth Center
08:03PM 33.0219 -92.3619 194° South 413 475 36,000  Level Fort Worth Center
08:04PM 32.9231 -92.3922 194° South 419 482 36,000  Level Fort Worth Center
08:05PM 32.8117 -92.4256 194° South 419 482 36,000  Level Fort Worth Center
08:06PM 32.6942 -92.4594 194° South 419 482 36,000  Level Fort Worth Center
08:07PM 32.5114 -92.5156 195° South 428 493 36,000  Level Houston Center
08:08PM 32.3958 -92.5508 194° South 429 494 36,000  Level Houston Center
08:09PM 32.2817 -92.5861 195° South 427 491 36,000  Level Houston Center
08:10PM 32.1642 -92.6197 194° South 433 498 36,000  Level Houston Center
08:11PM 32.0289 -92.6608 194° South 421 484 36,000  Level Houston Center
08:12PM 31.9336 -92.7375 214° Southwest 427 491 36,000 -60 Level Houston Center
08:13PM 31.8469 -92.8336 223° Southwest 428 493 35,900  Descending Houston Center
08:14PM 31.7542 -92.9231 219° Southwest 431 496 36,000  Climbing Houston Center
08:15PM 31.6608 -93.0111 219° Southwest 431 496 36,000  Level Houston Center
08:16PM 31.5667 -93.1008 219° Southwest 434 499 36,000  Level Houston Center
08:17PM 31.4728 -93.1906 219° Southwest 436 502 36,000  Level Houston Center
08:18PM 31.3603 -93.2950 221° Southwest 439 505 36,000 -120 Level Houston Center
08:19PM 31.3705 -93.2461 221° Southwest  Level FlightAware Approximate
08:20PM 31.2625 -93.3858 218° Southwest 441 507 35,800  Level Houston Center
08:21PM 31.1656 -93.4764 219° Southwest 446 513 34,100 -1,800 Descending Houston Center
08:22PM 31.0686 -93.5658 218° Southwest 446 513 32,100 -2,040 Descending Houston Center
08:23PM 30.9706 -93.6558 218° Southwest 449 517 30,000 -2,400 Descending Houston Center
08:25PM 30.7550 -93.8542 218° Southwest 453 521 24,700 -2,520 Descending Houston Center
08:26PM 30.6586 -93.9447 219° Southwest 451 519 22,300 -2,340 Descending Houston Center
08:27PM 30.5636 -94.0308 218° Southwest 441 507 19,900 -2,280 Descending Houston Center
08:28PM 30.4700 -94.1156 218° Southwest 434 499 17,600 -2,400 Descending Houston Center
08:29PM 30.3697 -94.2061 218° Southwest 414 476 15,100 -2,340 Descending Houston Center
08:30PM 30.2747 -94.2933 218° Southwest 404 465 12,900 -2,040 Descending Houston Center
08:30PM 30.2500 -94.3142 216° Southwest 380 437 12,400 -900 Descending Houston Center
08:31PM 30.2042 -94.3722 228° Southwest 360 414 12,000 -420 Descending Houston Center
08:31PM 30.1917 -94.4042 246° West 331 381 12,000 -300 Level Houston Center
08:32PM 30.1789 -94.4736 258° West 333 383 11,700 -600 Descending Houston Center
08:32PM 30.1722 -94.5058 257° West 328 377 11,400 -1,020 Descending Houston Center
08:33PM 30.1628 -94.5650 260° West 327 376 10,700 -1,080 Descending Houston Center
08:33PM 30.1539 -94.6194 259° West 326 375 10,200 -720 Descending Houston Center
08:34PM 30.1419 -94.6878 259° West 325 374 10,000 -240 Descending Houston Center
08:34PM 30.1347 -94.7258 258° West 327 376 10,000 -300 Level Houston Center
08:35PM 30.1261 -94.7833 260° West 302 348 9,700 -1,140 Descending Houston Center
08:36PM 30.1106 -94.8714 258° West 282 325 8,100 -1,560 Descending Houston Center
08:37PM 30.1056 -94.9611 266° West 281 323 6,600 -960 Descending Houston Center
08:38PM 30.1047 -95.0728 270° West 269 310 6,000 -300 Descending Houston Center
08:39PM 30.1067 -95.1319 272° West 269 310 6,000  Level Houston Center
08:40PM 30.1072 -95.2367 270° West 272 313 6,000  Level Houston Center
08:41PM 30.1067 -95.3222 270° West 270 311 6,000 -540 Level Houston Center
08:42PM 30.1067 -95.3983 270° West 241 277 4,900 -1,740 Descending Houston Center
08:43PM 30.0894 -95.4633 253° West 233 268 2,500 -1,500 Descending Houston Center
08:44PM 30.0347 -95.4564 174° South 212 244 1,900 -660 Descending Houston Center
08:45PM 30.0094 -95.4189 128° Southeast 170 196 1,200 -720 Descending Houston Center